Farelly Lake, Arkansas
Current Conditions -  °F | °C
As of 7:15 AM on Saturday 25 Oct 2014 (Local Time) from KSGT Reporting Station
Clear Clear  
Wind Chill: 57°   Ceiling: Unl
Heat Index: 57°   Visibility: 10mi
Dew Point: 52°   Wind: 3mph
Humidity: 82%   Direction: 210°SSW
Pressure: 30.11"   Gusts: NA
Location:  34.3615°N, 91.5213°W
Report Text: KSGT 251215Z AUTO 21003KT 10SM CLR 14/11 A3011 RMK AO1
Loading
Personal Weather Stations






























Interactive Weather Map
Tropical Storm Tracking
New forecast layout! Learn more

10-Day Weather Forecast

Advertisements
Track Severe Weather on mobile